Time;durP1;ratioP1;P1;durP2;ratioP2;P2;SDS_P1;SDS_P2;PMS_P1;PMS_P2;Temp;Humidity;BMP_temperature;BMP_pressure;BME280_temperature;BME280_humidity;BME280_pressure;Samples;Min_cycle;Max_cycle;Signal;HPM_P1;HPM_P2
2022/06/04 00:03:49;;;;;;;11.27;7.77;;;19.80;99.90;;;;;;21089000;28;20258;-64
2022/06/04 00:24:11;;;;;;;11.90;8.07;;;19.70;99.90;;;;;;21091613;28;20290;-63
2022/06/04 00:34:14;;;;;;;8.83;7.63;;;19.60;99.90;;;;;;21091465;28;20659;-64
2022/06/04 00:44:19;;;;;;;12.90;8.63;;;19.60;99.90;;;;;;21090118;28;20246;-65
2022/06/04 00:54:21;;;;;;;17.47;9.53;;;19.50;99.90;;;;;;21089581;28;20248;-63
2022/06/04 01:04:47;;;;;;;7.60;6.80;;;19.50;99.90;;;;;;21089014;28;20644;-63
2022/06/04 01:15:10;;;;;;;9.57;7.53;;;19.40;99.90;;;;;;21087346;28;20204;-68
2022/06/04 01:25:21;;;;;;;8.67;6.97;;;19.40;99.90;;;;;;21086916;28;20231;-68
2022/06/04 01:35:50;;;;;;;10.30;8.20;;;19.40;99.90;;;;;;21086884;28;20569;-66
2022/06/04 01:45:55;;;;;;;9.37;7.60;;;19.40;99.90;;;;;;21085439;28;20239;-70
2022/06/04 01:56:01;;;;;;;14.40;9.17;;;19.30;99.90;;;;;;21084845;28;20259;-70
2022/06/04 02:06:11;;;;;;;16.47;9.13;;;19.30;99.90;;;;;;21084202;28;20231;-69
2022/06/04 02:16:33;;;;;;;9.30;7.90;;;19.20;99.90;;;;;;21083068;28;20214;-68
2022/06/04 02:26:36;;;;;;;9.90;7.57;;;19.20;99.90;;;;;;21081322;28;20233;-70
2022/06/04 02:36:51;;;;;;;8.93;7.33;;;19.10;99.90;;;;;;21081804;28;20651;-71
2022/06/04 02:47:13;;;;;;;9.30;8.40;;;19.10;99.90;;;;;;21081107;28;20217;-71
2022/06/04 02:57:17;;;;;;;13.30;8.57;;;19.00;99.90;;;;;;21079893;28;20229;-70
2022/06/04 03:07:21;;;;;;;8.30;6.87;;;19.00;99.90;;;;;;21079269;28;20685;-63
2022/06/04 03:17:23;;;;;;;9.47;7.43;;;18.90;99.90;;;;;;21061108;28;20739;-62
2022/06/04 03:27:25;;;;;;;9.53;7.90;;;18.70;99.90;;;;;;21078156;28;20717;-63
2022/06/04 03:37:27;;;;;;;11.20;7.97;;;18.60;99.90;;;;;;21097437;28;20249;-71
2022/06/04 03:47:33;;;;;;;11.40;8.33;;;18.60;99.90;;;;;;21106059;28;20212;-69
2022/06/04 03:57:45;;;;;;;10.20;8.20;;;18.60;99.90;;;;;;21105126;28;20228;-69
2022/06/04 04:07:47;;;;;;;10.53;8.60;;;18.60;99.90;;;;;;21104841;28;20198;-70
2022/06/04 04:17:49;;;;;;;12.53;9.60;;;18.50;99.90;;;;;;21104583;28;20239;-70
2022/06/04 04:27:52;;;;;;;15.37;11.23;;;18.60;99.90;;;;;;21104194;28;20585;-63
2022/06/04 04:37:54;;;;;;;15.33;11.60;;;18.60;99.90;;;;;;21103873;28;20231;-69
2022/06/04 04:47:56;;;;;;;16.47;11.90;;;18.60;99.90;;;;;;21094960;28;20298;-71
2022/06/04 04:57:59;;;;;;;14.37;12.70;;;18.70;99.90;;;;;;21089524;28;20231;-67
2022/06/04 05:08:01;;;;;;;11.47;10.37;;;18.70;99.90;;;;;;21088742;28;20267;-71
2022/06/04 05:18:03;;;;;;;11.87;9.87;;;18.80;99.90;;;;;;21088121;28;20253;-62
2022/06/04 05:28:05;;;;;;;9.67;8.73;;;19.00;99.90;;;;;;21086784;28;20234;-62
2022/06/04 05:38:07;;;;;;;12.40;11.13;;;19.10;99.90;;;;;;21068258;28;20285;-63
2022/06/04 05:48:09;;;;;;;10.37;9.33;;;19.10;99.90;;;;;;21085573;28;20204;-62
2022/06/04 05:58:10;;;;;;;11.13;9.13;;;19.20;99.90;;;;;;21083472;28;20598;-66
2022/06/04 06:08:12;;;;;;;11.30;9.90;;;19.30;99.90;;;;;;21083596;28;20203;-67
2022/06/04 06:18:21;;;;;;;11.40;9.53;;;19.40;99.90;;;;;;21083141;28;20307;-67
2022/06/04 06:28:22;;;;;;;11.40;10.00;;;19.40;99.90;;;;;;21081783;28;20239;-69
2022/06/04 06:38:28;;;;;;;10.27;9.20;;;19.50;99.90;;;;;;21081372;28;20282;-67
2022/06/04 06:48:30;;;;;;;9.83;8.93;;;19.60;99.90;;;;;;21081114;28;20200;-67
2022/06/04 06:58:32;;;;;;;8.50;7.70;;;19.70;99.90;;;;;;21062157;28;20739;-68
2022/06/04 07:08:35;;;;;;;9.53;7.93;;;20.00;99.90;;;;;;21079370;28;20532;-68
2022/06/04 07:18:36;;;;;;;9.70;7.63;;;20.30;99.90;;;;;;21079127;28;20258;-70
2022/06/04 07:28:40;;;;;;;9.70;8.20;;;20.50;99.90;;;;;;21077874;28;20321;-69
2022/06/04 07:38:42;;;;;;;8.73;7.10;;;20.60;99.90;;;;;;21077904;28;20238;-65
2022/06/04 07:48:44;;;;;;;8.40;7.50;;;20.80;99.90;;;;;;21078057;28;20891;-68
2022/06/04 07:58:47;;;;;;;7.90;6.90;;;20.80;99.90;;;;;;21077214;28;20261;-70
2022/06/04 08:08:51;;;;;;;8.50;7.70;;;20.90;99.90;;;;;;21077186;28;20330;-68
2022/06/04 08:18:53;;;;;;;7.63;6.80;;;21.10;99.90;;;;;;21079033;28;20314;-63
2022/06/04 08:28:55;;;;;;;7.53;6.73;;;21.40;99.90;;;;;;21091974;28;20639;-63
2022/06/04 08:38:56;;;;;;;8.37;7.43;;;21.60;99.90;;;;;;21091001;28;20712;-65
2022/06/04 08:49:05;;;;;;;8.77;7.87;;;21.60;99.90;;;;;;21073452;28;20213;-67
2022/06/04 08:59:07;;;;;;;8.17;7.10;;;21.60;99.90;;;;;;21090375;28;20240;-66
2022/06/04 09:09:27;;;;;;;7.03;6.33;;;21.60;99.90;;;;;;21089124;28;20278;-67
2022/06/04 09:19:35;;;;;;;8.50;7.70;;;21.60;99.90;;;;;;21088400;28;20649;-70
2022/06/04 09:30:14;;;;;;;8.00;7.20;;;21.70;99.90;;;;;;21086907;28;20283;-67
2022/06/04 09:40:29;;;;;;;8.53;7.00;;;21.80;99.90;;;;;;21088004;28;20321;-68
2022/06/04 09:50:34;;;;;;;9.27;7.07;;;21.90;99.90;;;;;;21086766;28;20214;-63
2022/06/04 10:00:39;;;;;;;8.57;7.43;;;22.10;99.90;;;;;;21084951;28;20246;-66
2022/06/04 10:10:43;;;;;;;7.70;6.90;;;22.30;99.90;;;;;;21083631;28;20206;-70
2022/06/04 10:20:55;;;;;;;8.70;7.00;;;22.40;99.60;;;;;;21083727;28;20238;-66
2022/06/04 10:31:15;;;;;;;8.20;7.17;;;22.50;99.50;;;;;;21082194;28;20709;-63
2022/06/04 10:41:41;;;;;;;8.27;6.20;;;22.50;99.00;;;;;;21080628;28;20254;-68
2022/06/04 10:52:14;;;;;;;7.30;6.60;;;22.60;98.90;;;;;;21080644;28;20554;-67
2022/06/04 11:02:28;;;;;;;8.67;6.30;;;22.60;98.60;;;;;;21062477;28;20230;-65
2022/06/04 11:12:43;;;;;;;7.33;6.60;;;22.70;98.50;;;;;;21079322;28;20293;-67
2022/06/04 11:22:59;;;;;;;9.47;6.97;;;22.70;98.30;;;;;;21078569;28;20287;-67
2022/06/04 11:33:18;;;;;;;6.37;5.67;;;22.90;98.10;;;;;;21078428;28;20245;-69
2022/06/04 11:43:41;;;;;;;9.00;5.87;;;23.00;98.00;;;;;;21077831;28;20613;-70
2022/06/04 11:54:27;;;;;;;5.17;4.77;;;23.00;97.80;;;;;;21080883;28;20209;-67
2022/06/04 12:04:55;;;;;;;5.83;5.33;;;23.10;97.60;;;;;;21094199;28;20287;-63
2022/06/04 12:15:26;;;;;;;8.73;5.17;;;23.00;97.10;;;;;;21093284;28;20241;-66
2022/06/04 12:25:39;;;;;;;6.37;4.70;;;23.00;96.90;;;;;;21091988;28;20710;-64
2022/06/04 12:35:40;;;;;;;9.27;4.50;;;23.00;97.00;;;;;;21091466;28;20206;-62
2022/06/04 12:45:48;;;;;;;4.00;3.70;;;23.00;96.90;;;;;;21091090;28;20238;-63
2022/06/04 12:56:01;;;;;;;6.63;3.80;;;23.10;96.40;;;;;;21089641;28;20264;-69
2022/06/04 13:06:26;;;;;;;4.30;3.83;;;23.20;96.00;;;;;;21088316;28;20234;-61
2022/06/04 13:16:31;;;;;;;3.83;3.43;;;23.40;95.50;;;;;;21088646;28;20686;-62
2022/06/04 13:26:45;;;;;;;4.37;3.90;;;23.50;95.00;;;;;;21087065;28;20317;-62
2022/06/04 13:36:48;;;;;;;7.40;4.70;;;23.70;94.50;;;;;;21086908;28;20770;-61
2022/06/04 13:46:50;;;;;;;6.50;4.67;;;23.80;94.30;;;;;;21086259;28;20241;-64
2022/06/04 13:56:53;;;;;;;4.50;3.70;;;24.00;94.20;;;;;;21086371;28;20203;-61
2022/06/04 14:06:55;;;;;;;5.00;4.13;;;24.20;94.10;;;;;;21087004;28;20242;-64
2022/06/04 14:17:19;;;;;;;4.33;3.67;;;24.40;93.80;;;;;;21083117;28;20203;-62
2022/06/04 14:27:31;;;;;;;5.83;3.60;;;24.20;93.10;;;;;;21082652;28;20238;-64
2022/06/04 14:37:41;;;;;;;3.73;3.10;;;24.60;92.50;;;;;;21081971;28;20206;-64
2022/06/04 14:48:10;;;;;;;3.07;2.77;;;24.80;91.90;;;;;;21082307;28;20216;-62
2022/06/04 14:58:56;;;;;;;3.07;2.70;;;25.10;90.80;;;;;;21080761;28;20230;-60
2022/06/04 15:09:16;;;;;;;2.90;2.70;;;25.20;90.00;;;;;;21080118;28;20304;-62
2022/06/04 15:19:30;;;;;;;3.13;2.83;;;25.30;88.90;;;;;;21079939;28;20329;-64
2022/06/04 15:40:17;;;;;;;3.20;3.00;;;25.30;86.70;;;;;;21079306;28;20237;-66
2022/06/04 16:01:25;;;;;;;3.23;2.90;;;25.40;85.60;;;;;;21077706;28;20234;-63
2022/06/04 16:11:57;;;;;;;5.00;3.43;;;26.00;84.80;;;;;;21076945;28;20646;-63
2022/06/04 16:22:00;;;;;;;3.15;2.65;;;27.40;80.60;;;;;;21076579;28;20230;-63
2022/06/04 16:32:11;;;;;;;2.73;2.53;;;27.30;79.20;;;;;;21058508;28;20233;-63
2022/06/04 16:42:30;;;;;;;3.77;2.80;;;26.60;78.70;;;;;;21081341;28;20241;-63
2022/06/04 16:52:39;;;;;;;3.00;2.80;;;26.00;79.50;;;;;;21090571;28;20209;-69
2022/06/04 17:03:09;;;;;;;3.73;2.80;;;25.60;79.40;;;;;;21090123;28;20231;-66
2022/06/04 17:13:17;;;;;;;3.17;2.80;;;25.30;79.60;;;;;;21088685;28;20226;-65
2022/06/04 17:23:26;;;;;;;3.30;3.00;;;25.30;80.20;;;;;;21087518;28;20283;-69
2022/06/04 17:33:50;;;;;;;5.47;3.00;;;25.80;80.00;;;;;;21087588;28;20673;-64
2022/06/04 17:43:52;;;;;;;3.67;3.37;;;25.70;80.80;;;;;;21086599;28;20650;-63
2022/06/04 17:53:54;;;;;;;21.43;10.13;;;25.80;81.10;;;;;;21085346;28;20716;-64
2022/06/04 18:03:56;;;;;;;3.70;2.90;;;26.10;80.10;;;;;;21085061;28;20234;-62
2022/06/04 18:13:57;;;;;;;5.13;3.37;;;25.70;79.90;;;;;;21083802;28;20263;-63
2022/06/04 18:23:59;;;;;;;5.70;5.20;;;25.10;80.20;;;;;;21082892;28;20238;-62
2022/06/04 18:34:01;;;;;;;5.77;5.20;;;24.90;81.60;;;;;;21064788;28;20293;-64
2022/06/04 18:54:27;;;;;;;7.43;5.90;;;24.30;83.70;;;;;;21081041;28;20213;-65
2022/06/04 19:04:28;;;;;;;6.80;6.20;;;24.00;84.50;;;;;;21079901;28;20566;-62
2022/06/04 19:14:31;;;;;;;7.73;5.80;;;23.80;85.30;;;;;;21081101;28;20206;-63
2022/06/04 19:24:37;;;;;;;7.50;6.40;;;23.60;86.00;;;;;;21078996;28;20659;-66
2022/06/04 19:34:40;;;;;;;6.80;6.20;;;23.50;86.90;;;;;;21079535;28;20210;-62
2022/06/04 19:44:42;;;;;;;7.77;6.90;;;23.30;87.80;;;;;;21080333;28;20697;-63
2022/06/04 20:05:06;;;;;;;7.83;7.03;;;23.00;89.80;;;;;;21077098;28;20241;-67
2022/06/04 20:15:11;;;;;;;7.60;6.90;;;22.90;90.30;;;;;;21079102;28;20206;-69
2022/06/04 20:25:13;;;;;;;8.07;7.13;;;22.70;90.60;;;;;;21091984;28;20250;-68
2022/06/04 20:35:20;;;;;;;9.33;6.93;;;22.60;91.00;;;;;;21091129;28;20648;-69
2022/06/04 20:45:22;;;;;;;7.90;7.20;;;22.50;91.80;;;;;;21090437;28;20241;-70
2022/06/04 20:55:24;;;;;;;8.27;7.10;;;22.30;91.90;;;;;;21089270;28;20206;-69
2022/06/04 21:05:26;;;;;;;8.77;7.87;;;22.20;92.50;;;;;;21089033;28;20238;-70
2022/06/04 21:15:28;;;;;;;9.80;7.90;;;22.10;92.90;;;;;;21089123;28;20206;-70
2022/06/04 21:25:35;;;;;;;9.03;8.13;;;21.90;93.30;;;;;;21087334;28;20246;-70
2022/06/04 21:46:14;;;;;;;12.53;9.10;;;21.70;94.10;;;;;;21023606;28;20245;-68
2022/06/04 21:56:16;;;;;;;10.70;9.00;;;21.50;94.40;;;;;;21085634;28;20206;-70
2022/06/04 22:06:19;;;;;;;11.57;9.90;;;21.40;94.70;;;;;;21084825;28;20268;-67
2022/06/04 22:16:22;;;;;;;11.87;10.27;;;21.20;95.30;;;;;;21084386;28;20575;-66
2022/06/04 22:26:25;;;;;;;12.23;10.63;;;21.00;95.80;;;;;;21083040;28;20245;-69
2022/06/04 22:36:26;;;;;;;11.33;10.23;;;20.90;96.10;;;;;;21081608;28;20209;-67
2022/06/04 22:46:28;;;;;;;19.60;10.50;;;20.80;96.30;;;;;;21081570;28;20234;-63
2022/06/04 22:56:30;;;;;;;10.37;9.20;;;20.60;96.60;;;;;;21080875;28;20851;-67
2022/06/04 23:06:36;;;;;;;9.60;8.53;;;20.50;96.70;;;;;;21080169;28;20251;-67
2022/06/04 23:26:59;;;;;;;9.27;8.40;;;20.40;96.40;;;;;;21079054;28;20237;-63
2022/06/04 23:37:01;;;;;;;8.90;8.00;;;20.40;96.20;;;;;;21078657;28;20231;-62
2022/06/04 23:47:04;;;;;;;10.67;8.03;;;20.30;96.00;;;;;;21078602;28;20258;-63
2022/06/04 23:57:06;;;;;;;8.47;7.43;;;20.20;95.80;;;;;;21094202;28;20736;-63
